createdAt,value
2022-12-18T00:01:04.466Z,97023.13
2022-12-18T00:03:31.163Z,97026.66
2022-12-18T00:08:55.193Z,97034.31
2022-12-18T00:22:37.952Z,97042.06
2022-12-18T00:25:08.791Z,97041.50
2022-12-18T00:27:44.059Z,97044.66
2022-12-18T00:30:18.148Z,97043.06
2022-12-18T00:32:52.707Z,97039.94
2022-12-18T00:35:22.101Z,97038.41
2022-12-18T00:37:49.266Z,97043.94
2022-12-18T00:40:17.739Z,97043.16
2022-12-18T00:42:45.422Z,97042.44
2022-12-18T00:45:13.372Z,97046.56
2022-12-18T00:50:17.726Z,97037.94
2022-12-18T00:52:45.691Z,97042.72
2022-12-18T00:55:13.350Z,97047.47
2022-12-18T00:57:40.021Z,97054.97
2022-12-18T01:00:07.406Z,97056.84
2022-12-18T01:02:34.733Z,97063.41
2022-12-18T01:05:01.809Z,97064.16
2022-12-18T01:07:28.789Z,97061.56
2022-12-18T01:09:58.251Z,97077.22
2022-12-18T01:12:25.101Z,97076.66
2022-12-18T01:14:51.965Z,97079.53
2022-12-18T01:17:19.519Z,97078.22
2022-12-18T01:19:46.141Z,97088.22
2022-12-18T01:22:14.626Z,97075.34
2022-12-18T01:24:41.495Z,97076.06
2022-12-18T01:27:09.024Z,97081.06
2022-12-18T01:29:38.106Z,97085.34
2022-12-18T01:32:04.976Z,97097.31
2022-12-18T01:34:31.597Z,97105.66
2022-12-18T01:36:58.466Z,97112.97
2022-12-18T01:39:25.148Z,97122.34
2022-12-18T01:44:54.767Z,97120.84
2022-12-18T01:47:22.269Z,97120.69
2022-12-18T01:49:49.326Z,97124.28
2022-12-18T01:52:16.197Z,97127.22
2022-12-18T01:54:43.091Z,97126.97
2022-12-18T01:57:13.223Z,97134.53
2022-12-18T01:59:39.884Z,97132.97
2022-12-18T02:02:08.112Z,97137.03
2022-12-18T02:04:35.221Z,97136.41
2022-12-18T02:07:33.930Z,97136.31
2022-12-18T02:09:51.796Z,97145.31
2022-12-18T02:12:21.401Z,97146.97
2022-12-18T02:14:47.999Z,97138.63
2022-12-18T02:17:15.725Z,97150.31
2022-12-18T02:19:50.591Z,97145.19
2022-12-18T02:22:19.421Z,97144.75
2022-12-18T02:24:47.145Z,97150.88
2022-12-18T02:27:14.258Z,97155.06
2022-12-18T02:29:41.130Z,97151.19
2022-12-18T02:32:07.857Z,97156.00
2022-12-18T02:34:36.333Z,97149.13
2022-12-18T02:37:02.884Z,97154.00
2022-12-18T02:39:29.546Z,97151.19
2022-12-18T02:41:56.598Z,97152.81
2022-12-18T02:44:24.231Z,97153.94
2022-12-18T02:46:51.174Z,97150.72
2022-12-18T02:49:18.117Z,97146.25
2022-12-18T02:51:48.197Z,97147.44
2022-12-18T02:54:14.993Z,97152.06
2022-12-18T02:56:42.298Z,97153.41
2022-12-18T02:59:09.146Z,97152.75
2022-12-18T03:01:37.278Z,97160.94
2022-12-18T03:06:58.094Z,97167.63
2022-12-18T03:09:26.079Z,97170.25
2022-12-18T03:15:05.822Z,97174.78
2022-12-18T03:17:33.184Z,97178.56
2022-12-18T03:20:00.888Z,97172.22
2022-12-18T03:25:43.900Z,97168.97
2022-12-18T03:28:11.322Z,97161.66
2022-12-18T03:30:38.061Z,97161.66
2022-12-18T03:33:05.730Z,97167.06
2022-12-18T03:35:40.040Z,97156.38
2022-12-18T03:38:06.935Z,97171.00
2022-12-18T03:40:33.559Z,97155.66
2022-12-18T03:43:00.179Z,97166.91
2022-12-18T03:45:27.077Z,97160.81
2022-12-18T03:47:54.125Z,97160.81
2022-12-18T03:50:22.362Z,97167.19
2022-12-18T03:52:49.213Z,97173.94
2022-12-18T03:55:16.799Z,97170.88
2022-12-18T03:57:44.131Z,97170.06
2022-12-18T04:00:13.952Z,97165.22
2022-12-18T04:02:40.807Z,97165.16
2022-12-18T04:05:07.684Z,97170.22
2022-12-18T04:07:34.521Z,97170.28
2022-12-18T04:10:03.351Z,97165.94
2022-12-18T04:12:34.244Z,97164.50
2022-12-18T04:15:13.158Z,97168.13
2022-12-18T04:18:00.529Z,97168.28
2022-12-18T04:20:27.132Z,97164.59
2022-12-18T04:25:41.330Z,97174.38
2022-12-18T04:28:08.231Z,97170.94
2022-12-18T04:30:34.866Z,97167.44
2022-12-18T04:33:02.663Z,97179.59
2022-12-18T04:38:26.330Z,97180.91
2022-12-18T04:40:53.909Z,97180.84
2022-12-18T04:43:24.590Z,97189.38
2022-12-18T04:45:51.154Z,97189.16
2022-12-18T04:48:17.821Z,97187.69
2022-12-18T04:50:47.764Z,97194.06
2022-12-18T04:53:14.837Z,97193.69
2022-12-18T04:55:41.707Z,97194.72
2022-12-18T04:58:10.013Z,97195.56
2022-12-18T05:00:36.575Z,97195.88
2022-12-18T05:03:04.213Z,97202.25
2022-12-18T05:05:32.595Z,97201.44
2022-12-18T05:08:01.058Z,97208.53
2022-12-18T05:10:36.211Z,97208.22
2022-12-18T05:13:04.589Z,97208.84
2022-12-18T05:15:31.678Z,97205.72
2022-12-18T05:17:58.300Z,97212.63
2022-12-18T05:20:26.079Z,97215.41
2022-12-18T05:22:52.592Z,97212.59
2022-12-18T05:25:19.514Z,97216.03
2022-12-18T05:27:47.709Z,97217.03
2022-12-18T05:30:14.365Z,97220.88
2022-12-18T05:32:41.138Z,97220.28
2022-12-18T05:35:07.739Z,97219.97
2022-12-18T05:37:42.501Z,97224.91
2022-12-18T05:40:09.898Z,97217.22
2022-12-18T05:42:36.854Z,97221.97
2022-12-18T05:45:03.705Z,97223.53
2022-12-18T05:47:31.565Z,97224.88
2022-12-18T05:50:00.243Z,97224.69
2022-12-18T05:52:27.148Z,97233.94
2022-12-18T05:54:54.895Z,97235.94
2022-12-18T05:57:21.671Z,97237.28
2022-12-18T05:59:51.481Z,97233.41
2022-12-18T06:02:18.782Z,97241.72
2022-12-18T06:04:45.877Z,97246.91
2022-12-18T06:07:12.472Z,97240.81
2022-12-18T06:09:39.163Z,97238.69
2022-12-18T06:12:06.477Z,97237.03
2022-12-18T06:14:33.020Z,97238.72
2022-12-18T06:17:11.086Z,97246.63
2022-12-18T06:19:38.167Z,97242.41
2022-12-18T06:22:05.096Z,97241.09
2022-12-18T06:24:31.804Z,97241.16
2022-12-18T06:26:59.147Z,97252.13
2022-12-18T06:29:25.893Z,97253.75
2022-12-18T06:32:04.169Z,97259.75
2022-12-18T06:40:43.870Z,97278.22
2022-12-18T06:43:13.036Z,97276.31
2022-12-18T06:46:14.030Z,97278.50
2022-12-18T06:48:34.094Z,97284.16
2022-12-18T06:57:29.338Z,97298.56
2022-12-18T06:59:56.622Z,97304.47
2022-12-18T07:02:32.705Z,97316.03
2022-12-18T07:05:00.139Z,97311.97
2022-12-18T07:07:28.699Z,97310.38
2022-12-18T07:09:56.668Z,97314.31
2022-12-18T07:12:31.547Z,97320.41
2022-12-18T07:15:06.629Z,97319.88
2022-12-18T07:17:46.869Z,97321.59
2022-12-18T07:20:21.859Z,97317.66
2022-12-18T07:34:12.907Z,97323.28
2022-12-18T07:36:50.993Z,97338.19
2022-12-18T07:39:22.367Z,97331.00
2022-12-18T07:41:53.461Z,97332.09
2022-12-18T07:47:44.665Z,97337.13
2022-12-18T07:50:19.542Z,97335.00
2022-12-18T07:52:47.490Z,97332.38
2022-12-18T08:07:29.453Z,97348.75
2022-12-18T08:10:13.684Z,97357.44
2022-12-18T08:47:55.744Z,97337.59
2022-12-18T08:50:58.402Z,97337.31
2022-12-18T08:53:35.664Z,97345.31
2022-12-18T08:56:16.336Z,97350.56
2022-12-18T08:58:49.517Z,97340.25
2022-12-18T09:01:20.465Z,97336.47
2022-12-18T09:03:51.632Z,97337.63
2022-12-18T09:06:22.881Z,97344.28
2022-12-18T09:08:57.808Z,97347.81
2022-12-18T09:11:29.601Z,97346.41
2022-12-18T09:13:57.282Z,97352.25
2022-12-18T09:19:08.095Z,97335.56
2022-12-18T09:21:37.075Z,97349.63
2022-12-18T09:24:09.242Z,97364.06
2022-12-18T09:26:36.260Z,97366.31
2022-12-18T09:29:03.253Z,97368.56
2022-12-18T09:31:30.870Z,97357.41
2022-12-18T09:36:40.155Z,97351.28
2022-12-18T09:39:09.190Z,97347.59
2022-12-18T09:41:36.680Z,97357.19
2022-12-18T09:44:03.247Z,97351.84
2022-12-18T09:46:32.857Z,97359.03
2022-12-18T09:48:59.782Z,97359.56
2022-12-18T09:51:28.489Z,97356.31
2022-12-18T09:54:00.892Z,97358.84
2022-12-18T09:59:26.263Z,97359.19
2022-12-18T10:01:54.016Z,97353.00
2022-12-18T10:04:22.757Z,97358.94
2022-12-18T10:06:52.791Z,97348.88
2022-12-18T10:12:08.767Z,97353.13
2022-12-18T10:14:38.579Z,97353.03
2022-12-18T10:17:07.203Z,97345.06
2022-12-18T10:22:27.534Z,97348.28
2022-12-18T10:24:58.206Z,97352.66
2022-12-18T10:27:26.840Z,97342.22
2022-12-18T10:29:55.844Z,97349.25
2022-12-18T10:32:22.687Z,97344.13
2022-12-18T10:34:49.520Z,97339.78
2022-12-18T10:37:25.307Z,97337.91
2022-12-18T10:42:45.053Z,97338.97
2022-12-18T10:45:15.962Z,97345.81
2022-12-18T10:51:10.799Z,97350.78
2022-12-18T11:08:52.028Z,97338.69
2022-12-18T11:11:22.879Z,97329.94
2022-12-18T11:13:50.133Z,97337.19
2022-12-18T11:16:18.955Z,97328.34
2022-12-18T11:18:49.656Z,97323.09
2022-12-18T11:21:17.225Z,97333.50
2022-12-18T11:23:45.691Z,97333.44
2022-12-18T11:26:16.945Z,97334.50
2022-12-18T11:28:45.525Z,97339.34
2022-12-18T11:31:21.404Z,97336.19
2022-12-18T11:34:19.714Z,97340.81
2022-12-18T11:36:45.415Z,97330.84
2022-12-18T11:39:20.215Z,97337.47
2022-12-18T11:41:54.810Z,97332.88
2022-12-18T11:44:21.764Z,97327.16
2022-12-18T11:46:53.356Z,97314.94
2022-12-18T11:49:20.469Z,97314.25
2022-12-18T11:51:49.261Z,97319.56
2022-12-18T11:54:19.870Z,97306.84
2022-12-18T12:02:33.958Z,97286.78
2022-12-18T12:05:01.461Z,97280.78
2022-12-18T12:07:30.567Z,97289.66
2022-12-18T12:09:57.913Z,97276.94
2022-12-18T12:12:27.065Z,97272.94
2022-12-18T12:15:05.326Z,97279.16
2022-12-18T12:17:34.936Z,97283.88
2022-12-18T12:22:43.807Z,97275.19
2022-12-18T12:25:13.325Z,97260.53
2022-12-18T12:27:45.690Z,97255.16
2022-12-18T12:30:23.448Z,97262.72
2022-12-18T12:32:51.803Z,97253.59
2022-12-18T12:35:18.850Z,97259.97
2022-12-18T12:37:50.593Z,97252.84
2022-12-18T12:43:01.211Z,97249.63
2022-12-18T12:45:35.144Z,97249.59
2022-12-18T12:48:03.863Z,97248.16
2022-12-18T12:50:38.984Z,97253.91
2022-12-18T12:53:06.235Z,97241.19
2022-12-18T12:55:33.282Z,97244.50
2022-12-18T12:58:00.851Z,97245.28
2022-12-18T13:00:38.398Z,97238.66
2022-12-18T13:03:05.575Z,97247.78
2022-12-18T13:05:33.351Z,97243.53
2022-12-18T13:08:03.267Z,97239.03
2022-12-18T13:10:33.179Z,97240.31
2022-12-18T13:13:00.181Z,97227.00
2022-12-18T13:15:27.904Z,97229.03
2022-12-18T13:18:02.065Z,97227.09
2022-12-18T13:20:29.066Z,97233.50
2022-12-18T13:22:56.011Z,97241.78
2022-12-18T13:25:23.266Z,97235.03
2022-12-18T13:27:50.728Z,97233.50
2022-12-18T13:30:21.759Z,97226.13
2022-12-18T13:32:48.388Z,97229.19
2022-12-18T13:38:10.170Z,97217.09
2022-12-18T13:40:38.342Z,97209.69
2022-12-18T13:43:05.048Z,97213.13
2022-12-18T13:45:33.313Z,97219.22
2022-12-18T13:48:00.212Z,97217.97
2022-12-18T13:50:36.051Z,97227.72
2022-12-18T13:53:04.851Z,97220.69
2022-12-18T13:55:39.100Z,97226.00
2022-12-18T13:58:09.044Z,97211.94
2022-12-18T14:00:36.411Z,97218.78
2022-12-18T14:03:03.506Z,97225.63
2022-12-18T14:05:31.016Z,97214.06
2022-12-18T14:08:07.116Z,97209.56
2022-12-18T14:10:48.953Z,97211.66
2022-12-18T14:13:35.311Z,97219.16
2022-12-18T14:16:06.708Z,97204.91
2022-12-18T14:18:35.387Z,97216.31
2022-12-18T14:21:03.906Z,97228.91
2022-12-18T14:23:45.971Z,97215.06
2022-12-18T14:29:34.186Z,97226.78
2022-12-18T14:32:01.177Z,97224.03
2022-12-18T14:40:42.600Z,97228.47
2022-12-18T14:46:18.874Z,97229.31
2022-12-18T14:48:48.226Z,97236.09
2022-12-18T14:51:27.866Z,97242.63
2022-12-18T14:57:06.100Z,97234.94
2022-12-18T15:05:25.339Z,97236.47
2022-12-18T15:07:53.929Z,97232.94
2022-12-18T15:10:20.451Z,97237.16
2022-12-18T15:12:49.159Z,97232.00
2022-12-18T15:15:16.667Z,97232.94
2022-12-18T15:17:44.354Z,97245.94
2022-12-18T15:20:11.019Z,97244.63
2022-12-18T15:22:38.642Z,97245.22
2022-12-18T15:31:20.551Z,97245.81
2022-12-18T15:34:31.071Z,97245.25
2022-12-18T15:37:03.739Z,97258.84
2022-12-18T15:45:20.042Z,97248.88
2022-12-18T15:48:02.753Z,97238.03
2022-12-18T15:50:35.312Z,97238.00
2022-12-18T15:55:46.668Z,97237.53
2022-12-18T15:58:19.511Z,97244.47
2022-12-18T16:00:52.612Z,97251.56
2022-12-18T16:03:19.553Z,97246.34
2022-12-18T16:05:49.341Z,97246.81
2022-12-18T16:08:18.378Z,97250.63
2022-12-18T16:10:46.279Z,97244.38
2022-12-18T16:13:13.901Z,97252.00
2022-12-18T16:15:41.225Z,97234.53
2022-12-18T16:18:08.103Z,97240.09
2022-12-18T16:20:34.783Z,97242.59
2022-12-18T16:23:06.294Z,97242.31
2022-12-18T16:25:33.133Z,97245.44
2022-12-18T16:28:01.509Z,97237.25
2022-12-18T16:30:32.328Z,97230.47
2022-12-18T16:33:05.928Z,97236.50
2022-12-18T16:35:35.545Z,97245.16
2022-12-18T16:38:02.644Z,97249.66
2022-12-18T16:40:34.265Z,97256.91
2022-12-18T16:43:02.648Z,97252.97
2022-12-18T16:45:29.710Z,97250.13
2022-12-18T16:47:58.243Z,97252.47
2022-12-18T16:50:29.286Z,97249.09
2022-12-18T16:52:56.028Z,97249.16
2022-12-18T16:55:23.389Z,97256.38
2022-12-18T16:57:50.773Z,97257.28
2022-12-18T17:00:20.354Z,97257.56
2022-12-18T17:02:47.993Z,97253.00
2022-12-18T17:05:14.806Z,97258.25
2022-12-18T17:07:45.620Z,97254.94
2022-12-18T17:10:13.328Z,97253.13
2022-12-18T17:12:41.973Z,97253.94
2022-12-18T17:15:15.313Z,97240.47
2022-12-18T17:17:43.434Z,97237.94
2022-12-18T17:20:10.274Z,97226.66
2022-12-18T17:22:39.793Z,97236.00
2022-12-18T17:25:06.502Z,97224.00
2022-12-18T17:27:33.103Z,97232.94
2022-12-18T17:33:06.288Z,97228.06
2022-12-18T17:38:37.564Z,97255.22
2022-12-18T17:41:05.648Z,97267.41
2022-12-18T17:46:42.428Z,97273.41
2022-12-18T17:49:09.003Z,97269.25
2022-12-18T17:51:39.007Z,97262.50
2022-12-18T17:54:05.628Z,97269.84
2022-12-18T17:56:33.027Z,97269.31
2022-12-18T17:58:59.740Z,97272.50
2022-12-18T18:01:28.160Z,97255.81
2022-12-18T18:03:58.115Z,97249.66
2022-12-18T18:06:27.214Z,97239.81
2022-12-18T18:54:26.974Z,97250.66
2022-12-18T18:57:19.363Z,97249.53
2022-12-18T19:10:57.533Z,97289.88
2022-12-18T19:19:03.932Z,97267.38
2022-12-18T21:26:02.031Z,97217.53
2022-12-18T21:28:28.792Z,97215.16
2022-12-18T21:43:05.769Z,97213.34
2022-12-18T21:45:40.617Z,97223.63
2022-12-18T21:48:09.261Z,97228.25
2022-12-18T21:50:36.308Z,97221.38
2022-12-18T21:53:03.291Z,97209.84
2022-12-18T21:55:34.193Z,97212.13
2022-12-18T21:58:01.704Z,97204.28
2022-12-18T22:00:28.800Z,97209.22
2022-12-18T22:03:17.219Z,97212.31
2022-12-18T22:05:46.474Z,97214.47
2022-12-18T22:08:16.777Z,97213.75
2022-12-18T22:10:46.064Z,97212.44
2022-12-18T22:13:13.226Z,97224.75
2022-12-18T22:15:40.315Z,97214.06
2022-12-18T22:18:07.306Z,97221.38
2022-12-18T22:20:34.525Z,97218.03
2022-12-18T22:23:05.904Z,97219.25
2022-12-18T22:25:35.836Z,97220.03
2022-12-18T22:28:06.621Z,97214.47
2022-12-18T22:30:34.170Z,97216.47
2022-12-18T22:33:01.633Z,97216.34
2022-12-18T22:35:30.635Z,97224.41
2022-12-18T22:37:57.429Z,97229.78
2022-12-18T22:40:28.379Z,97227.97
2022-12-18T22:42:55.132Z,97231.72
2022-12-18T22:45:29.524Z,97239.56
2022-12-18T22:47:58.833Z,97235.50
2022-12-18T22:50:25.734Z,97240.75
2022-12-18T22:52:52.725Z,97249.00
2022-12-18T22:55:24.195Z,97248.66
2022-12-18T22:58:00.921Z,97247.53
2022-12-18T23:00:28.054Z,97245.63
2022-12-18T23:03:00.386Z,97240.00
2022-12-18T23:05:29.994Z,97235.53
2022-12-18T23:08:00.915Z,97229.16
2022-12-18T23:10:31.655Z,97230.63
2022-12-18T23:13:02.792Z,97234.41
2022-12-18T23:15:32.036Z,97232.13
2022-12-18T23:17:59.619Z,97229.50
2022-12-18T23:20:31.725Z,97221.91
2022-12-18T23:23:00.297Z,97219.56
2022-12-18T23:25:26.947Z,97239.94
2022-12-18T23:27:54.097Z,97238.84
2022-12-18T23:30:26.154Z,97241.09
2022-12-18T23:32:53.403Z,97230.59
2022-12-18T23:35:21.121Z,97223.50
2022-12-18T23:37:59.314Z,97225.78
2022-12-18T23:40:29.655Z,97231.41
2022-12-18T23:42:57.291Z,97237.81
2022-12-18T23:45:23.898Z,97241.91
2022-12-18T23:47:51.460Z,97229.16
2022-12-18T23:50:18.165Z,97231.78
2022-12-18T23:52:45.269Z,97223.50
2022-12-18T23:55:12.104Z,97220.53
2022-12-18T23:57:39.458Z,97211.47
